createdAt,value
2022-08-22T01:37:34.165Z,96.15
2022-08-22T01:43:15.372Z,99.97
2022-08-22T01:48:08.604Z,99.65
2022-08-22T01:52:22.445Z,98.89
2022-08-22T01:56:42.753Z,96.18
2022-08-22T02:01:24.147Z,96.83
2022-08-22T02:05:37.049Z,97.29
2022-08-22T02:10:27.939Z,97.66
2022-08-22T02:37:35.667Z,100.00
2022-08-22T02:48:36.973Z,99.85
2022-08-22T02:58:26.082Z,100.00
2022-08-22T03:03:02.087Z,99.06
2022-08-22T03:07:13.243Z,100.00
2022-08-22T03:11:40.790Z,100.00
2022-08-22T03:17:02.385Z,100.00
2022-08-22T03:21:28.524Z,100.00
2022-08-22T03:25:41.680Z,100.00
2022-08-22T03:29:48.503Z,99.99
2022-08-22T03:34:22.661Z,98.07
2022-08-22T03:38:29.802Z,98.91
2022-08-22T03:43:18.208Z,97.60
2022-08-22T03:48:23.003Z,96.03
2022-08-22T03:53:18.619Z,93.58
2022-08-22T03:57:50.312Z,94.40
2022-08-22T04:02:41.800Z,95.27
2022-08-22T04:06:57.761Z,95.88
2022-08-22T04:11:33.577Z,94.56
2022-08-22T04:15:59.952Z,93.66
2022-08-22T04:20:24.627Z,91.41
2022-08-22T04:24:52.163Z,93.09
2022-08-22T04:29:01.116Z,92.47
2022-08-22T04:33:08.394Z,89.88
2022-08-22T04:37:18.789Z,86.60
2022-08-22T04:41:24.544Z,85.56
2022-08-22T04:45:31.968Z,83.63
2022-08-22T04:49:43.535Z,83.71
2022-08-22T04:54:14.305Z,82.64
2022-08-22T04:58:38.819Z,83.59
2022-08-22T05:02:59.188Z,83.09
2022-08-22T05:07:16.309Z,83.78
2022-08-22T05:11:26.789Z,83.86
2022-08-22T05:15:32.729Z,84.19
2022-08-22T05:19:42.470Z,83.97
2022-08-22T05:23:51.840Z,84.08
2022-08-22T05:28:12.620Z,81.88
2022-08-22T05:32:21.491Z,84.01
2022-08-22T05:36:32.501Z,84.91
2022-08-22T05:40:39.306Z,84.04
2022-08-22T05:49:25.130Z,82.35
2022-08-22T05:53:45.780Z,83.54
2022-08-22T06:15:56.954Z,83.69
2022-08-22T06:19:58.519Z,83.10
2022-08-22T06:24:10.475Z,82.57
2022-08-22T06:28:16.697Z,80.91
2022-08-22T06:32:59.969Z,80.90
2022-08-22T06:37:38.670Z,79.98
2022-08-22T06:42:02.316Z,79.93
2022-08-22T06:46:36.793Z,80.02
2022-08-22T06:50:44.819Z,79.53
2022-08-22T06:55:03.253Z,79.16
2022-08-22T07:00:05.040Z,77.05
2022-08-22T07:04:28.670Z,74.98
2022-08-22T07:09:05.651Z,75.08
2022-08-22T07:13:20.568Z,74.38
2022-08-22T07:17:41.249Z,73.72
2022-08-22T07:21:51.502Z,72.10
2022-08-22T07:26:12.482Z,72.41
2022-08-22T07:30:15.246Z,71.58
2022-08-22T07:35:03.042Z,70.51
2022-08-22T07:39:50.141Z,70.18
2022-08-22T07:44:17.717Z,70.34
2022-08-22T07:49:05.949Z,67.79
2022-08-22T07:53:15.651Z,68.79
2022-08-22T07:57:35.052Z,68.10
2022-08-22T08:02:15.313Z,67.20
2022-08-22T08:06:17.178Z,66.24
2022-08-22T08:11:04.425Z,65.00
2022-08-22T08:15:32.169Z,63.12
2022-08-22T08:20:04.559Z,60.07
2022-08-22T13:29:42.688Z,41.84
2022-08-22T14:58:10.428Z,41.98
2022-08-22T15:02:19.916Z,41.48
2022-08-22T15:06:35.031Z,40.79
2022-08-22T15:11:42.317Z,40.70
2022-08-22T15:15:59.783Z,40.79
2022-08-22T15:20:27.856Z,41.22
2022-08-22T15:24:39.000Z,41.20
2022-08-22T15:28:53.114Z,41.77
2022-08-22T15:33:12.897Z,41.60
2022-08-22T15:37:32.465Z,41.81
2022-08-22T15:41:46.148Z,42.28
2022-08-22T15:45:46.870Z,41.41
2022-08-22T15:49:55.521Z,41.81
2022-08-22T15:54:24.414Z,41.47
2022-08-22T15:58:27.079Z,41.22
2022-08-22T16:02:35.633Z,41.32
2022-08-22T16:07:44.482Z,41.98
2022-08-22T16:12:17.653Z,42.35
2022-08-22T16:17:16.973Z,42.78
2022-08-22T16:22:12.372Z,43.62
2022-08-22T16:26:21.022Z,43.54
2022-08-22T16:30:44.151Z,43.60
2022-08-22T16:34:52.307Z,43.25
2022-08-22T16:39:03.573Z,43.44
2022-08-22T16:43:29.144Z,43.71
2022-08-22T16:47:58.159Z,43.58
2022-08-22T16:52:37.390Z,43.65
2022-08-22T16:57:14.966Z,43.85
2022-08-22T17:02:00.600Z,43.59
2022-08-22T17:06:33.382Z,44.23
2022-08-22T17:10:53.076Z,44.90
2022-08-22T17:15:05.276Z,44.90
2022-08-22T17:19:28.455Z,44.65
2022-08-22T17:23:53.280Z,45.38
2022-08-22T17:28:30.088Z,46.08
2022-08-22T17:32:51.395Z,48.17
2022-08-22T17:42:30.217Z,50.26
2022-08-22T17:52:36.267Z,51.09
2022-08-22T18:03:39.296Z,56.70
2022-08-22T18:12:54.449Z,58.57
2022-08-22T18:17:25.448Z,59.55
2022-08-22T18:21:58.539Z,59.92
2022-08-22T18:26:48.335Z,60.01
2022-08-22T18:35:53.872Z,60.74
2022-08-22T18:40:20.970Z,61.86
2022-08-22T18:44:34.845Z,62.50
2022-08-22T18:54:16.481Z,63.69
2022-08-22T18:59:28.297Z,64.34
2022-08-22T19:09:30.718Z,65.61
2022-08-22T19:14:30.823Z,66.13
2022-08-22T19:19:04.773Z,67.05
2022-08-22T19:23:51.698Z,67.31
2022-08-22T19:29:19.824Z,68.65
2022-08-22T19:33:49.926Z,69.25
2022-08-22T19:39:42.109Z,70.21
2022-08-22T19:45:15.726Z,70.75
2022-08-22T19:50:10.415Z,71.07
2022-08-22T19:54:53.297Z,71.48
2022-08-22T19:59:35.859Z,71.31
2022-08-22T20:03:57.902Z,71.27
2022-08-22T20:08:22.415Z,71.71
2022-08-22T20:12:41.167Z,71.95
2022-08-22T20:17:22.876Z,72.17
2022-08-22T20:22:05.500Z,72.30
2022-08-22T20:26:25.701Z,72.15
2022-08-22T20:31:04.843Z,72.35
2022-08-22T20:35:29.833Z,72.90
2022-08-22T20:40:03.115Z,73.01
2022-08-22T20:44:53.465Z,72.78
2022-08-22T20:49:53.357Z,72.83
2022-08-22T20:54:26.921Z,72.61
2022-08-22T20:59:11.663Z,72.01
2022-08-22T21:03:49.828Z,71.71
2022-08-22T21:09:08.560Z,71.32
2022-08-22T21:19:37.663Z,69.74
2022-08-22T21:24:47.650Z,68.89
2022-08-22T21:29:41.475Z,68.05
2022-08-22T21:34:15.122Z,68.38
2022-08-22T21:38:28.939Z,68.79
2022-08-22T21:42:48.242Z,67.64
2022-08-22T21:47:03.077Z,66.54
2022-08-22T21:51:35.376Z,65.62
2022-08-22T21:56:16.468Z,67.15
2022-08-22T22:00:55.334Z,68.55
2022-08-22T22:05:33.977Z,68.88
2022-08-22T22:09:54.791Z,69.16
2022-08-22T22:14:19.987Z,70.92
2022-08-22T22:18:44.581Z,71.55
2022-08-22T22:23:01.197Z,72.40
2022-08-22T22:27:18.207Z,72.47
2022-08-22T22:31:27.510Z,73.33
2022-08-22T22:35:44.214Z,74.75
2022-08-22T22:40:28.368Z,75.65
2022-08-22T22:45:22.049Z,76.06
2022-08-22T22:50:39.176Z,76.03
2022-08-22T22:56:09.629Z,77.01
2022-08-22T23:17:30.872Z,79.60
2022-08-22T23:22:50.297Z,81.19
2022-08-22T23:33:01.746Z,84.09
2022-08-22T23:37:27.172Z,83.97
2022-08-22T23:42:17.544Z,83.74
2022-08-22T23:46:38.501Z,83.25
2022-08-22T23:50:52.249Z,83.13
2022-08-22T23:55:19.509Z,82.92
2022-08-22T23:59:37.050Z,82.71
